Latest Coastal Weather Observations for Point Fawcett

IDD60701

Issued at 11:35 am CST Tuesday 21 October 2014 (issued every 10 minutes, with the page automatically refreshed every 10 minutes)

About coastal observations | Map of coastal stations | Coastal observations for NT | Marine services | Other Formats
Station Details ID: 200731 Name: POINT FAWCETT Lat: -11.76 Lon: 130.03 Height: 6.5 m
Data from the previous 72 hours. | See also: Recent months at Point Fawcett
Date/Time
CST
Temp

°C
Wind Pressure Rain
since 9am
mm
Weather Cloud Vis
km
Sea
Height
m
Swell
Dir
 
Speed
knots
Gust
knots
hPa Trend Height
m
Period
s
Dir
21/11:30am 33.2 SE 7 11 1015.1 - - - - - - - - -
21/11:00am 33.4 NNE 5 10 1015.4 - - - - - - - - -
21/10:30am 33.0 NNE 8 12 1015.4 - - - - - - - - -
21/10:00am 32.1 NE 7 11 1015.4 - - - - - - - - -
21/09:30am 31.6 NE 8 12 1015.2 - - - - - - - - -
21/09:00am 29.8 NE 5 8 1015.2 - - - - - - - - -
21/08:30am 29.0 NE 4 7 1015.4 - - - - - - - - -
21/08:00am 27.4 ENE 4 6 1015.3 - - - - - - - - -
21/07:30am 25.0 E 3 5 1014.8 - - - - - - - - -
21/07:00am 22.6 ENE 4 4 1014.6 - - - - - - - - -
21/06:30am 22.0 E 4 5 1014.5 - - - - - - - - -
21/06:00am 22.0 E 4 5 1014.1 - - - - - - - - -
21/05:30am 23.1 E 5 5 1013.9 - - - - - - - - -
21/05:00am 23.9 ENE 5 6 1013.6 - - - - - - - - -
21/04:30am 24.3 ENE 5 6 1013.5 - - - - - - - - -
21/04:00am 24.2 E 5 7 1013.3 - - - - - - - - -
21/03:30am 24.5 E 5 6 1013.3 - - - - - - - - -
21/03:00am 24.6 E 5 6 1013.1 - - - - - - - - -
21/02:30am 25.7 ENE 4 5 1013.2 - - - - - - - - -
21/02:00am 26.6 NNE 5 7 1013.5 - - - - - - - - -
21/01:30am 26.9 NNE 6 9 1013.6 - - - - - - - - -
21/01:00am 26.9 NE 6 8 1014.0 - - - - - - - - -
21/12:30am 27.1 NE 6 9 1014.3 - - - - - - - - -
21/12:00am 27.6 NE 6 9 1014.2 - - - - - - - - -
 
Date/Time
CST
Temp

°C
Wind Pressure Rain
since 9am
mm
Weather Cloud Vis
km
Sea
Height
m
Swell
Dir
 
Speed
knots
Gust
knots
hPa Trend Height
m
Period
s
Dir
20/11:30pm 27.4 NNE 5 8 1014.3 - - - - - - - - -
20/11:00pm 27.6 NE 6 8 1014.3 - - - - - - - - -
20/10:30pm 27.9 N 6 10 1014.1 - - - - - - - - -
20/10:00pm 28.0 N 8 12 1013.9 - - - - - - - - -
20/09:30pm 28.2 NNW 8 10 1013.6 - - - - - - - - -
20/09:00pm 28.1 N 8 11 1013.2 - - - - - - - - -
20/08:30pm 28.1 NNW 8 11 1012.9 - - - - - - - - -
20/08:00pm 28.3 NNW 9 11 1012.3 - - - - - - - - -
20/07:30pm 28.5 NW 9 12 1011.9 - - - - - - - - -
20/07:00pm 28.6 NW 9 11 1011.6 - - - - - - - - -
20/06:30pm 28.9 NNW 9 12 1011.3 - - - - - - - - -
20/06:00pm 29.5 NW 9 12 1010.9 - - - - - - - - -
20/05:30pm 30.0 NW 10 14 1010.7 - - - - - - - - -
20/05:00pm 30.8 NW 11 15 1010.3 - - - - - - - - -
20/04:30pm 31.0 NNW 14 17 1010.1 - - - - - - - - -
20/04:00pm 31.4 NNW 15 19 1010.1 - - - - - - - - -
20/03:30pm 32.6 NNW 14 19 1010.0 - - - - - - - - -
20/03:00pm 33.2 NNE 5 8 1010.2 - - - - - - - - -
20/02:30pm 33.8 N 7 10 1010.5 - - - - - - - - -
20/02:00pm 33.7 NNW 6 9 1011.1 - - - - - - - - -
20/01:30pm 33.3 NNW 5 7 1011.5 - - - - - - - - -
20/01:00pm 33.2 NW 9 13 1012.2 - - - - - - - - -
20/12:30pm 32.4 NW 6 9 1013.0 - - - - - - - - -
20/12:00pm 32.5 NNW 6 8 1013.6 - - - - - - - - -
20/11:30am 31.8 WNW 5 7 1014.1 - - - - - - - - -
20/11:00am 34.0 NNE 4 9 1014.2 - - - - - - - - -
20/10:30am 33.1 E 5 11 1014.5 - - - - - - - - -
20/10:00am 32.4 ENE 7 11 1014.8 - - - - - - - - -
20/09:30am 31.2 ENE 7 15 1015.0 - - - - - - - - -
20/09:00am 30.6 ENE 6 10 1014.7 - - - - - - - - -
20/08:30am 29.5 E 5 7 1014.8 - - - - - - - - -
20/08:00am 27.9 E 5 8 1014.6 - - - - - - - - -
20/07:30am 25.3 E 4 6 1014.3 - - - - - - - - -
20/07:00am 25.2 ENE 4 6 1013.7 - - - - - - - - -
20/06:30am 24.6 E 8 12 1013.7 - - - - - - - - -
20/06:00am 24.3 E 3 4 1013.3 - - - - - - - - -
20/05:30am 24.3 E 4 5 1013.2 - - - - - - - - -
20/05:00am 23.9 E 3 4 1012.8 - - - - - - - - -
20/04:30am 23.9 E 4 5 1012.6 - - - - - - - - -
20/04:00am 24.4 ESE 3 4 1012.5 - - - - - - - - -
20/03:30am 24.9 ESE 4 5 1012.6 - - - - - - - - -
20/03:00am 25.0 E 4 6 1012.3 - - - - - - - - -
20/02:30am 25.7 E 4 6 1012.4 - - - - - - - - -
20/02:00am 26.5 NE 5 8 1012.6 - - - - - - - - -
20/01:30am 26.9 NE 5 8 1012.9 - - - - - - - - -
20/01:00am 27.1 NE 5 7 1013.2 - - - - - - - - -
20/12:30am 27.1 NE 5 8 1013.5 - - - - - - - - -
20/12:00am 27.2 NE 5 6 1013.6 - - - - - - - - -
 
Date/Time
CST
Temp

°C
Wind Pressure Rain
since 9am
mm
Weather Cloud Vis
km
Sea
Height
m
Swell
Dir
 
Speed
knots
Gust
knots
hPa Trend Height
m
Period
s
Dir
19/11:30pm 27.0 NNE 5 7 1013.8 - - - - - - - - -
19/11:00pm 27.2 NE 6 9 1013.7 - - - - - - - - -
19/10:30pm 27.4 NNE 7 9 1013.6 - - - - - - - - -
19/10:00pm 27.5 NE 6 9 1013.2 - - - - - - - - -
19/09:30pm 27.6 NE 6 10 1013.0 - - - - - - - - -
19/09:00pm 27.9 NNE 8 12 1012.6 - - - - - - - - -
19/08:30pm 28.2 NNE 6 11 1012.2 - - - - - - - - -
19/08:00pm 28.4 NNE 8 13 1011.8 - - - - - - - - -
19/07:30pm 28.6 NNE 10 15 1011.1 - - - - - - - - -
19/07:00pm 28.9 NNE 9 13 1010.7 - - - - - - - - -
19/06:30pm 29.4 NNE 10 15 1010.5 - - - - - - - - -
19/06:00pm 30.3 N 11 15 1010.1 - - - - - - - - -
19/05:30pm 31.0 N 10 14 1010.1 - - - - - - - - -
19/05:00pm 31.2 N 8 12 1010.0 - - - - - - - - -
19/04:30pm 31.8 NNW 9 12 1010.0 - - - - - - - - -
19/04:00pm 30.6 N 8 12 1010.3 - - - - - - - - -
19/03:30pm 30.4 W 5 8 1010.6 - - - - - - - - -
19/03:00pm 30.1 W 7 10 1010.4 - - - - - - - - -
19/02:30pm 31.2 WSW 8 14 1010.5 - - - - - - - - -
19/02:00pm 32.8 S 5 8 1010.5 - - - - - - - - -
19/01:30pm 33.5 W 6 13 1010.8 - - - - - - - - -
19/01:00pm 32.8 WSW 8 11 1011.4 - - - - - - - - -
19/12:30pm 32.4 WSW 7 11 1012.0 - - - - - - - - -
19/12:00pm 32.4 W 6 8 1012.4 - - - - - - - - -
19/11:30am 32.2 W 6 8 1013.0 - - - - - - - - -
19/11:00am 33.2 N 5 7 1013.5 - - - - - - - - -
19/10:30am 32.8 ENE 6 9 1013.8 - - - - - - - - -
19/10:00am 32.5 E 6 11 1014.2 - - - - - - - - -
19/09:30am 30.9 E 5 7 1014.4 - - - - - - - - -
19/09:00am 30.1 E 6 10 1014.3 - - - - - - - - -
19/08:30am 29.1 E 6 9 1014.2 - - - - - - - - -
19/08:00am 27.4 E 6 10 1014.0 - - - - - - - - -
19/07:30am 25.7 E 5 7 1013.7 - - - - - - - - -
19/07:00am 24.2 E 5 7 1013.2 - - - - - - - - -
19/06:30am 23.3 E 5 7 1012.8 - - - - - - - - -
19/06:00am 22.8 ESE 4 6 1012.4 - - - - - - - - -
19/05:30am 23.5 E 5 6 1012.5 - - - - - - - - -
19/05:00am 23.4 E 5 7 1012.2 - - - - - - - - -
19/04:30am 22.2 ESE 5 7 1011.9 - - - - - - - - -
19/04:00am 21.6 ESE 5 6 1011.5 - - - - - - - - -
19/03:30am 21.6 ESE 4 5 1011.2 - - - - - - - - -
19/03:00am 21.8 ESE 4 5 1011.2 - - - - - - - - -
19/02:30am 21.4 ESE 4 5 1011.4 - - - - - - - - -
19/02:00am 21.6 SE 4 4 1011.6 - - - - - - - - -
19/01:30am 22.3 SE 4 5 1011.8 - - - - - - - - -
19/01:00am 22.8 ESE 3 4 1012.0 - - - - - - - - -
19/12:30am 23.4 E 3 4 1012.2 - - - - - - - - -
19/12:00am 24.6 ENE 3 5 1012.5 - - - - - - - - -
 
Date/Time
CST
Temp

°C
Wind Pressure Rain
since 9am
mm
Weather Cloud Vis
km
Sea
Height
m
Swell
Dir
 
Speed
knots
Gust
knots
hPa Trend Height
m
Period
s
Dir
18/11:30pm 26.2 NE 4 5 1012.8 - - - - - - - - -
18/11:00pm 26.8 NE 6 8 1012.7 - - - - - - - - -
18/10:30pm 27.2 NNE 7 11 1012.6 - - - - - - - - -
18/10:00pm 27.5 NE 8 11 1012.3 - - - - - - - - -
18/09:30pm 27.7 NNE 7 11 1012.2 - - - - - - - - -
18/09:00pm 28.4 N 7 11 1011.9 - - - - - - - - -
18/08:30pm 28.3 N 7 10 1011.8 - - - - - - - - -
18/08:00pm 28.4 N 8 11 1011.7 - - - - - - - - -
18/07:30pm 28.2 N 8 11 1011.3 - - - - - - - - -
18/07:00pm 28.5 N 9 11 1011.0 - - - - - - - - -
18/06:30pm 28.8 N 9 13 1010.5 - - - - - - - - -
18/06:00pm 29.6 NNW 7 9 1010.2 - - - - - - - - -
18/05:30pm 30.5 NNW 8 10 1009.9 - - - - - - - - -
18/05:00pm 31.5 NW 9 12 1009.8 - - - - - - - - -
18/04:30pm 31.5 WNW 12 15 1009.7 - - - - - - - - -
18/04:00pm 34.7 ESE 6 11 1009.5 - - - - - - - - -
18/03:30pm 33.7 S 6 11 1009.6 - - - - - - - - -
18/03:00pm 34.1 SSW 8 16 1009.7 - - - - - - - - -
18/02:30pm 33.4 S 7 11 1010.2 - - - - - - - - -
18/02:00pm 32.7 S 8 13 1010.6 - - - - - - - - -
18/01:30pm 33.2 S 10 14 1010.8 - - - - - - - - -
18/01:00pm 33.9 SE 6 9 1011.4 - - - - - - - - -
18/12:30pm 32.2 NNW 5 6 1012.3 - - - - - - - - -
18/12:00pm 32.9 NW 5 7 1012.8 - - - - - - - - -

Other Formats:

Comma delimited format used in spreadsheet applications
http://www.bom.gov.au/fwo/IDD60701/IDD60701.94122.axf

JavaScript Object Notation format (JSON) in row-major order
http://www.bom.gov.au/fwo/IDD60701/IDD60701.94122.json